Time;durP1;ratioP1;P1;durP2;ratioP2;P2;SDS_P1;SDS_P2;PMS_P1;PMS_P2;Temp;Humidity;BMP_temperature;BMP_pressure;BME280_temperature;BME280_humidity;BME280_pressure;Samples;Min_cycle;Max_cycle;Signal;HPM_P1;HPM_P2
2021/12/31 00:00:45;;;;;;;;;;;;;;;12.94;94.40;101646.53;4981899;30;19922;-78
2021/12/31 00:03:16;;;;;;;;;;;;;;;12.87;94.46;101622.19;4981525;30;19997;-78
2021/12/31 00:05:47;;;;;;;;;;;;;;;12.92;94.37;101646.56;4982827;30;20263;-75
2021/12/31 00:08:19;;;;;;;;;;;;;;;12.94;94.01;101657.00;4982209;30;19922;-77
2021/12/31 00:10:55;;;;;;;;;;;;;;;12.88;94.47;101636.13;4980534;30;19989;-77
2021/12/31 00:13:26;;;;;;;;;;;;;;;13.02;93.82;101647.34;4980867;30;19932;-80
2021/12/31 00:15:58;;;;;;;;;;;;;;;12.99;93.39;101647.38;5045007;24;20021;-77
2021/12/31 00:18:29;;;;;;;;;;;;;;;12.89;93.65;101661.41;4962268;30;20350;-82
2021/12/31 00:21:00;;;;;;;;;;;;;;;12.98;92.98;101658.72;4980317;30;19918;-78
2021/12/31 00:23:57;;;;;;;;;;;;;;;12.88;93.25;101652.72;4987635;24;19937;-80
2021/12/31 00:26:29;;;;;;;;;;;;;;;12.88;93.06;101662.28;5006218;24;19929;-78
2021/12/31 00:29:01;;;;;;;;;;;;;;;12.95;92.89;101649.16;4979458;30;19922;-81
2021/12/31 00:31:32;;;;;;;;;;;;;;;12.95;92.66;101654.38;4979574;30;19996;-79
2021/12/31 00:34:03;;;;;;;;;;;;;;;12.91;93.07;101652.69;4979028;30;20546;-81
2021/12/31 00:36:45;;;;;;;;;;;;;;;12.91;92.99;101662.28;4979333;30;19929;-79
2021/12/31 00:39:16;;;;;;;;;;;;;;;12.89;92.66;101664.03;4979015;29;20377;-75
2021/12/31 00:41:47;;;;;;;;;;;;;;;12.89;92.50;101666.66;4962148;30;19906;-80
2021/12/31 00:44:21;;;;;;;;;;;;;;;12.95;92.22;101661.38;4981462;30;19964;-79
2021/12/31 00:49:33;;;;;;;;;;;;;;;12.98;91.01;101652.66;5073249;24;19945;-81
2021/12/31 00:52:05;;;;;;;;;;;;;;;12.93;91.95;101661.38;4979980;30;19938;-78
2021/12/31 00:54:36;;;;;;;;;;;;;;;12.95;91.46;101641.28;4981934;30;19929;-82
2021/12/31 00:57:07;;;;;;;;;;;;;;;12.91;91.09;101660.53;4963443;30;19922;-80
2021/12/31 00:59:40;;;;;;;;;;;;;;;12.89;91.55;101654.44;4978988;30;19932;-78
2021/12/31 01:02:12;;;;;;;;;;;;;;;12.88;91.27;101657.94;4979048;30;19929;-76
2021/12/31 01:07:25;;;;;;;;;;;;;;;13.00;90.62;101656.97;4960046;27;20047;-80
2021/12/31 01:09:56;;;;;;;;;;;;;;;13.01;90.66;101656.09;4977932;30;19937;-80
2021/12/31 01:12:28;;;;;;;;;;;;;;;12.97;90.43;101654.38;4978434;30;19979;-78
2021/12/31 01:15:06;;;;;;;;;;;;;;;13.02;90.55;101649.09;4977947;30;19922;-77
2021/12/31 01:17:51;;;;;;;;;;;;;;;12.99;90.12;101643.88;4980247;30;20396;-80
2021/12/31 01:20:22;;;;;;;;;;;;;;;12.89;90.76;101653.56;4979101;30;19929;-80
2021/12/31 01:22:54;;;;;;;;;;;;;;;12.87;91.43;101644.88;4979309;30;19922;-81
2021/12/31 01:25:25;;;;;;;;;;;;;;;12.84;91.46;101652.75;4977406;30;19980;-77
2021/12/31 01:28:15;;;;;;;;;;;;;;;12.83;91.13;101638.81;4976707;30;19918;-80
2021/12/31 01:30:46;;;;;;;;;;;;;;;12.89;91.23;101645.72;4975737;30;19933;-81
2021/12/31 01:33:17;;;;;;;;;;;;;;;12.84;90.98;101653.59;4976217;30;19922;-77
2021/12/31 01:35:48;;;;;;;;;;;;;;;12.94;90.41;101647.44;4976886;30;19971;-80
2021/12/31 01:38:20;;;;;;;;;;;;;;;12.88;90.07;101642.25;4976437;30;19922;-75
2021/12/31 01:40:52;;;;;;;;;;;;;;;12.87;90.47;101656.19;5041943;24;20326;-79
2021/12/31 01:43:23;;;;;;;;;;;;;;;12.87;90.48;101653.59;4976909;30;19957;-79
2021/12/31 01:45:56;;;;;;;;;;;;;;;12.87;90.05;101658.81;4975397;30;19934;-79
2021/12/31 01:48:36;;;;;;;;;;;;;;;12.86;89.86;101664.91;4976599;30;19975;-80
2021/12/31 01:51:08;;;;;;;;;;;;;;;13.04;88.75;101658.69;4974904;30;19961;-77
2021/12/31 01:53:39;;;;;;;;;;;;;;;13.01;89.05;101657.81;4959161;30;19921;-80
2021/12/31 01:56:10;;;;;;;;;;;;;;;12.97;89.35;101651.75;4976091;30;20162;-84
2021/12/31 01:58:42;;;;;;;;;;;;;;;13.06;88.81;101658.69;4975044;30;19920;-82
2021/12/31 02:01:14;;;;;;;;;;;;;;;13.09;88.50;101667.34;4976141;30;19957;-80
2021/12/31 02:03:45;;;;;;;;;;;;;;;13.08;88.35;101662.13;4976398;30;19933;-79
2021/12/31 02:06:16;;;;;;;;;;;;;;;13.09;88.33;101664.75;4976079;30;19953;-78
2021/12/31 02:08:47;;;;;;;;;;;;;;;13.05;88.53;101662.16;4974742;30;19970;-77
2021/12/31 02:11:20;;;;;;;;;;;;;;;13.07;88.27;101671.75;4975883;30;19938;-80
2021/12/31 02:13:51;;;;;;;;;;;;;;;12.96;88.30;101668.34;4961523;30;19943;-78
2021/12/31 02:16:23;;;;;;;;;;;;;;;13.04;87.92;101665.66;4975993;30;20021;-79
2021/12/31 02:18:55;;;;;;;;;;;;;;;12.96;88.43;101668.34;4959000;30;19985;-81
2021/12/31 02:21:26;;;;;;;;;;;;;;;12.94;88.57;101664.88;4976489;30;20235;-79
2021/12/31 02:24:02;;;;;;;;;;;;;;;12.98;88.11;101658.72;4975744;30;19917;-80
2021/12/31 02:26:33;;;;;;;;;;;;;;;12.94;88.60;101657.91;4976069;30;19939;-82
2021/12/31 02:29:05;;;;;;;;;;;;;;;13.02;87.79;101665.66;4975624;30;19922;-80
2021/12/31 02:31:36;;;;;;;;;;;;;;;12.99;88.41;101660.44;4962079;30;19918;-80
2021/12/31 02:34:07;;;;;;;;;;;;;;;12.99;88.03;101660.44;4979217;30;19921;-75
2021/12/31 02:36:38;;;;;;;;;;;;;;;12.99;88.13;101660.44;4980514;30;20020;-80
2021/12/31 02:39:10;;;;;;;;;;;;;;;13.05;87.55;101651.69;4977602;30;19926;-75
2021/12/31 02:41:41;;;;;;;;;;;;;;;13.06;87.50;101649.06;4974937;30;19925;-75
2021/12/31 02:44:21;;;;;;;;;;;;;;;12.97;88.06;101649.13;4972826;30;20310;-75
2021/12/31 02:47:02;;;;;;;;;;;;;;;12.91;88.48;101649.19;4971563;30;19961;-75
2021/12/31 02:49:38;;;;;;;;;;;;;;;12.92;88.20;101641.31;4971747;30;19988;-74
2021/12/31 02:52:11;;;;;;;;;;;;;;;12.87;88.17;101647.50;4971857;30;19925;-73
2021/12/31 02:54:44;;;;;;;;;;;;;;;12.93;88.57;101644.84;4971440;30;20419;-74
2021/12/31 02:57:16;;;;;;;;;;;;;;;12.94;87.92;101646.53;4970310;30;19918;-75
2021/12/31 02:59:47;;;;;;;;;;;;;;;12.86;88.17;101640.50;4970314;30;19925;-76
2021/12/31 03:02:24;;;;;;;;;;;;;;;12.87;88.30;101643.13;4970265;30;20689;-73
2021/12/31 03:04:58;;;;;;;;;;;;;;;12.84;88.43;101650.13;4969403;30;19922;-75
2021/12/31 03:07:30;;;;;;;;;;;;;;;12.84;88.55;101650.13;4969396;30;19948;-74
2021/12/31 03:10:03;;;;;;;;;;;;;;;12.89;88.53;101648.34;4972175;30;19922;-74
2021/12/31 03:12:34;;;;;;;;;;;;;;;12.87;88.02;101656.19;4973316;30;20028;-74
2021/12/31 03:15:06;;;;;;;;;;;;;;;12.83;88.22;101638.81;4973189;30;19965;-73
2021/12/31 03:17:40;;;;;;;;;;;;;;;12.75;88.80;101649.31;4971807;30;19924;-74
2021/12/31 03:20:15;;;;;;;;;;;;;;;12.68;89.16;101645.00;4973542;30;19933;-77
2021/12/31 03:22:49;;;;;;;;;;;;;;;12.69;89.18;101635.44;4973987;30;19982;-74
2021/12/31 03:25:20;;;;;;;;;;;;;;;12.65;89.21;101633.72;4976454;30;19917;-74
2021/12/31 03:27:51;;;;;;;;;;;;;;;12.66;88.98;101631.09;4974031;30;20004;-74
2021/12/31 03:30:23;;;;;;;;;;;;;;;12.66;88.80;101630.22;4975484;30;20010;-75
2021/12/31 03:32:54;;;;;;;;;;;;;;;12.65;89.05;101637.19;4977280;30;19948;-74
2021/12/31 03:35:25;;;;;;;;;;;;;;;12.64;88.91;101638.09;4975694;30;19922;-76
2021/12/31 03:37:57;;;;;;;;;;;;;;;12.71;88.80;101636.28;4975838;30;19938;-74
2021/12/31 03:40:28;;;;;;;;;;;;;;;12.77;88.44;101628.38;4975458;30;19922;-74
2021/12/31 03:42:59;;;;;;;;;;;;;;;12.63;89.09;101618.03;4975537;30;19930;-76
2021/12/31 03:45:31;;;;;;;;;;;;;;;12.62;88.89;101621.50;4975885;30;19946;-76
2021/12/31 03:48:03;;;;;;;;;;;;;;;12.61;89.00;101626.78;4959197;30;20303;-76
2021/12/31 03:50:34;;;;;;;;;;;;;;;12.64;88.36;101618.88;4974680;30;20447;-74
2021/12/31 03:53:05;;;;;;;;;;;;;;;12.66;88.47;101614.53;4980416;24;19918;-73
2021/12/31 03:55:37;;;;;;;;;;;;;;;12.58;88.97;101614.59;4973767;30;19929;-75
2021/12/31 03:58:08;;;;;;;;;;;;;;;12.52;89.08;101618.09;4974724;30;19922;-74
2021/12/31 04:00:39;;;;;;;;;;;;;;;12.61;88.78;101621.56;4973947;30;19933;-74
2021/12/31 04:03:11;;;;;;;;;;;;;;;12.59;89.01;101624.19;4974761;30;19922;-74
2021/12/31 04:05:42;;;;;;;;;;;;;;;12.58;88.98;101625.91;4974223;30;20371;-75
2021/12/31 04:08:14;;;;;;;;;;;;;;;12.59;89.03;101618.94;4975135;30;19921;-76
2021/12/31 04:10:46;;;;;;;;;;;;;;;12.66;88.44;101625.00;4973274;30;20424;-75
2021/12/31 04:13:17;;;;;;;;;;;;;;;12.70;88.31;101611.00;4974895;30;19980;-75
2021/12/31 04:15:48;;;;;;;;;;;;;;;12.68;88.79;101624.09;4944178;30;19922;-75
2021/12/31 04:18:20;;;;;;;;;;;;;;;12.69;88.53;101612.75;4974452;30;19938;-74
2021/12/31 04:20:56;;;;;;;;;;;;;;;12.67;88.91;101624.09;4975515;30;19921;-74
2021/12/31 04:23:46;;;;;;;;;;;;;;;12.66;88.49;101623.25;4974713;30;20374;-74
2021/12/31 04:26:18;;;;;;;;;;;;;;;12.75;88.14;101625.78;4972775;30;19960;-75
2021/12/31 04:28:49;;;;;;;;;;;;;;;12.68;88.19;101618.00;4973560;30;20363;-73
2021/12/31 04:31:21;;;;;;;;;;;;;;;12.68;88.57;101611.00;4973887;30;20378;-75
2021/12/31 04:33:52;;;;;;;;;;;;;;;12.72;88.51;101622.34;4973705;30;19921;-75
2021/12/31 04:36:23;;;;;;;;;;;;;;;12.68;88.46;101612.75;4974130;30;20338;-74
2021/12/31 04:38:55;;;;;;;;;;;;;;;12.62;88.80;101605.81;4974706;30;19918;-75
2021/12/31 04:41:26;;;;;;;;;;;;;;;12.65;88.65;101611.03;4972065;30;19932;-73
2021/12/31 04:43:57;;;;;;;;;;;;;;;12.64;88.61;101596.22;4972435;30;19918;-74
2021/12/31 04:46:28;;;;;;;;;;;;;;;12.61;88.81;101605.88;4973581;30;19925;-75
2021/12/31 04:49:00;;;;;;;;;;;;;;;12.66;88.21;101601.44;4972656;30;19926;-74
2021/12/31 04:51:31;;;;;;;;;;;;;;;12.63;88.42;101586.63;4973842;30;20345;-74
2021/12/31 04:54:02;;;;;;;;;;;;;;;12.56;88.66;101574.50;4974977;30;19929;-76
2021/12/31 04:56:34;;;;;;;;;;;;;;;12.65;88.41;101584.00;4973438;30;20433;-76
2021/12/31 04:59:05;;;;;;;;;;;;;;;12.56;88.22;101600.66;4974114;30;19921;-75
2021/12/31 05:01:36;;;;;;;;;;;;;;;12.60;87.67;101607.59;4972464;30;19966;-75
2021/12/31 05:04:07;;;;;;;;;;;;;;;12.61;87.49;101598.88;4970989;30;19990;-77
2021/12/31 05:06:39;;;;;;;;;;;;;;;12.67;87.82;101584.84;4972885;30;20379;-74
2021/12/31 05:09:10;;;;;;;;;;;;;;;12.56;88.11;101600.66;4973750;30;19952;-74
2021/12/31 05:11:47;;;;;;;;;;;;;;;12.55;87.97;101607.63;4973015;30;19922;-73
2021/12/31 05:14:19;;;;;;;;;;;;;;;12.56;88.11;101605.91;4973574;30;19968;-77
2021/12/31 05:16:50;;;;;;;;;;;;;;;12.49;87.79;101615.50;4972535;30;19961;-73
2021/12/31 05:19:21;;;;;;;;;;;;;;;12.51;88.00;101599.81;4971747;30;19917;-77
2021/12/31 05:21:52;;;;;;;;;;;;;;;12.53;87.68;101598.94;4970168;30;19951;-78
2021/12/31 05:24:24;;;;;;;;;;;;;;;12.56;87.33;101598.03;4967290;30;19917;-76
2021/12/31 05:26:55;;;;;;;;;;;;;;;12.48;87.84;101592.00;4966414;30;20024;-77
2021/12/31 05:29:26;;;;;;;;;;;;;;;12.45;87.77;101599.88;4964589;30;20462;-76
2021/12/31 05:31:57;;;;;;;;;;;;;;;12.43;87.70;101597.28;4964552;30;19979;-76
2021/12/31 05:34:29;;;;;;;;;;;;;;;12.40;87.82;101595.53;4964563;30;19929;-75
2021/12/31 05:37:00;;;;;;;;;;;;;;;12.35;87.82;101580.78;4964665;30;19951;-75
2021/12/31 05:39:31;;;;;;;;;;;;;;;12.31;87.84;101590.38;4964833;30;19917;-75
2021/12/31 05:42:03;;;;;;;;;;;;;;;12.28;87.85;101572.09;4964215;30;19922;-76
2021/12/31 05:44:34;;;;;;;;;;;;;;;12.18;88.42;101560.81;4948651;30;19928;-74
2021/12/31 05:47:05;;;;;;;;;;;;;;;12.15;88.29;101565.22;4964809;30;19918;-76
2021/12/31 05:49:37;;;;;;;;;;;;;;;12.07;88.77;101565.25;4965935;30;20354;-81
2021/12/31 05:52:08;;;;;;;;;;;;;;;11.93;89.15;101554.03;4965774;30;20386;-75
2021/12/31 05:54:39;;;;;;;;;;;;;;;11.85;89.15;101549.69;4965032;30;19926;-76
2021/12/31 07:03:05;;;;;;;;;;;;;;;10.93;92.55;101582.22;5444605;24;19984;-75
2021/12/31 07:05:36;;;;;;;;;;;;;;;10.90;92.65;101589.16;4949295;30;20387;-74
2021/12/31 07:08:08;;;;;;;;;;;;;;;10.89;92.84;101595.28;4964923;30;19920;-75
2021/12/31 07:10:39;;;;;;;;;;;;;;;10.86;92.74;101603.09;4963790;30;19922;-75
2021/12/31 07:13:11;;;;;;;;;;;;;;;10.82;93.03;101602.25;4963163;30;19929;-74
2021/12/31 07:15:44;;;;;;;;;;;;;;;10.79;93.26;101601.34;4964400;30;20378;-80
2021/12/31 07:18:16;;;;;;;;;;;;;;;10.79;93.26;101594.41;4965756;30;19929;-77
2021/12/31 07:20:48;;;;;;;;;;;;;;;10.75;93.42;101590.94;4963662;30;20013;-74
2021/12/31 07:23:20;;;;;;;;;;;;;;;10.79;93.35;101597.03;4963743;30;20394;-74
2021/12/31 07:25:51;;;;;;;;;;;;;;;10.72;93.39;101600.50;4963089;30;19992;-74
2021/12/31 07:28:23;;;;;;;;;;;;;;;10.74;93.47;101604.00;4963674;30;20008;-74
2021/12/31 07:30:55;;;;;;;;;;;;;;;10.68;93.71;101610.06;4963194;30;19922;-79
2021/12/31 07:33:28;;;;;;;;;;;;;;;10.68;93.54;101604.00;4963130;30;19926;-75
2021/12/31 07:36:00;;;;;;;;;;;;;;;10.68;93.48;101598.78;4963520;30;19928;-75
2021/12/31 07:38:40;;;;;;;;;;;;;;;10.67;93.50;101604.84;4963869;30;19922;-78
2021/12/31 07:41:11;;;;;;;;;;;;;;;10.66;93.43;101611.81;4962962;30;20006;-75
2021/12/31 07:43:43;;;;;;;;;;;;;;;10.65;93.50;101609.19;4963496;30;19922;-76
2021/12/31 07:46:14;;;;;;;;;;;;;;;10.68;93.20;101606.59;4963372;30;19922;-75
2021/12/31 07:48:45;;;;;;;;;;;;;;;10.70;92.93;101610.91;4963190;30;19921;-78
2021/12/31 07:51:16;;;;;;;;;;;;;;;10.67;93.19;101613.53;4962729;30;20020;-76
2021/12/31 07:53:48;;;;;;;;;;;;;;;10.66;93.15;101621.34;4963273;30;19926;-75
2021/12/31 07:56:19;;;;;;;;;;;;;;;10.63;93.20;101619.63;4957833;30;19928;-75
2021/12/31 07:59:00;;;;;;;;;;;;;;;10.62;93.16;101630.06;4958369;30;20022;-76
2021/12/31 08:01:31;;;;;;;;;;;;;;;10.60;93.13;101631.81;4944494;30;20422;-75
2021/12/31 08:04:02;;;;;;;;;;;;;;;10.54;93.35;101641.31;4944137;30;19926;-73
2021/12/31 08:06:33;;;;;;;;;;;;;;;10.61;92.99;101638.72;4944157;30;20436;-77
2021/12/31 08:09:05;;;;;;;;;;;;;;;10.69;92.74;101647.44;4944144;30;19918;-75
2021/12/31 08:11:37;;;;;;;;;;;;;;;10.66;92.75;101644.81;4943725;30;20063;-75
2021/12/31 08:14:27;;;;;;;;;;;;;;;10.71;92.37;101648.31;4943480;30;20383;-73
2021/12/31 08:16:58;;;;;;;;;;;;;;;10.68;92.46;101646.56;4947091;30;19918;-74
2021/12/31 08:19:29;;;;;;;;;;;;;;;10.73;92.01;101634.41;4947348;30;19925;-77
2021/12/31 08:22:01;;;;;;;;;;;;;;;10.86;91.31;101634.41;4947776;30;19918;-75
2021/12/31 08:24:32;;;;;;;;;;;;;;;10.83;91.51;101635.25;4931752;30;19918;-75
2021/12/31 08:27:03;;;;;;;;;;;;;;;10.94;90.59;101617.00;4946837;30;20063;-75
2021/12/31 08:29:37;;;;;;;;;;;;;;;10.96;90.25;101607.44;4946641;30;20693;-76
2021/12/31 08:32:09;;;;;;;;;;;;;;;11.04;89.84;101595.25;4953360;30;20393;-77
2021/12/31 08:34:41;;;;;;;;;;;;;;;11.15;89.15;101613.50;4964496;30;19926;-75
2021/12/31 08:37:14;;;;;;;;;;;;;;;11.11;89.12;101617.00;4962352;30;19921;-75
2021/12/31 08:39:45;;;;;;;;;;;;;;;11.15;88.94;101618.72;4948388;30;19921;-75
2021/12/31 08:42:16;;;;;;;;;;;;;;;11.20;88.77;101623.94;4965580;30;19921;-76
2021/12/31 08:44:47;;;;;;;;;;;;;;;11.24;87.98;101621.31;4964716;30;19933;-77
2021/12/31 08:47:19;;;;;;;;;;;;;;;11.33;87.30;101623.00;4964547;30;20024;-75
2021/12/31 08:49:50;;;;;;;;;;;;;;;11.32;87.54;101613.47;4964410;30;19922;-76
2021/12/31 08:52:22;;;;;;;;;;;;;;;11.41;87.14;101607.34;4964578;30;19928;-75
2021/12/31 08:54:53;;;;;;;;;;;;;;;11.44;86.65;101609.94;4964583;30;19986;-76
2021/12/31 08:57:24;;;;;;;;;;;;;;;11.52;86.28;101599.47;4963848;30;19928;-75
2021/12/31 10:51:39;;;;;;;;;;;;;;;12.40;82.19;101653.06;5430022;24;19929;-75
2021/12/31 10:54:27;;;;;;;;;;;;;;;12.51;82.89;101645.16;4965330;30;20277;-74
2021/12/31 10:56:58;;;;;;;;;;;;;;;12.51;81.12;101646.88;4981804;30;19921;-74
2021/12/31 10:59:37;;;;;;;;;;;;;;;12.43;80.73;101657.41;4982197;30;19995;-75
2021/12/31 11:02:10;;;;;;;;;;;;;;;12.54;81.26;101646.84;4975712;30;19926;-76
2021/12/31 11:04:41;;;;;;;;;;;;;;;12.51;81.25;101644.25;4977447;30;19921;-77
2021/12/31 11:07:13;;;;;;;;;;;;;;;12.61;80.90;101632.88;4975284;29;19947;-76
2021/12/31 11:09:45;;;;;;;;;;;;;;;12.50;81.01;101632.09;4975921;30;20433;-76
2021/12/31 11:12:16;;;;;;;;;;;;;;;12.39;81.85;101632.16;4977475;30;19925;-76
2021/12/31 11:14:48;;;;;;;;;;;;;;;12.37;82.40;101623.47;4961413;30;19978;-75
2021/12/31 11:17:20;;;;;;;;;;;;;;;12.46;81.62;101614.66;4962541;30;19921;-75
2021/12/31 11:19:51;;;;;;;;;;;;;;;12.62;81.21;101624.13;4962106;30;19974;-76
2021/12/31 11:22:27;;;;;;;;;;;;;;;12.60;81.48;101615.44;4961070;30;19988;-75
2021/12/31 11:25:22;;;;;;;;;;;;;;;12.62;81.18;101586.66;4961661;30;19922;-74
2021/12/31 11:27:55;;;;;;;;;;;;;;;12.52;81.68;101614.63;4922405;30;19922;-75
2021/12/31 11:30:34;;;;;;;;;;;;;;;12.57;81.01;101584.06;4921971;30;19993;-74
2021/12/31 11:33:09;;;;;;;;;;;;;;;12.56;81.14;101569.28;4922585;30;19925;-75
2021/12/31 11:35:59;;;;;;;;;;;;;;;12.58;81.47;101564.91;4920961;30;20486;-74
2021/12/31 11:38:30;;;;;;;;;;;;;;;13.13;80.63;101563.47;4922014;30;20541;-75
2021/12/31 11:41:08;;;;;;;;;;;;;;;13.67;78.81;101568.97;4922945;30;19922;-75
2021/12/31 11:43:41;;;;;;;;;;;;;;;14.02;76.86;101559.75;4922569;30;19999;-82
2021/12/31 11:46:12;;;;;;;;;;;;;;;14.04;75.53;101544.88;4922439;30;19999;-76
2021/12/31 11:48:52;;;;;;;;;;;;;;;13.77;76.75;101540.91;4921842;30;20409;-76
2021/12/31 11:51:28;;;;;;;;;;;;;;;13.46;77.20;101543.94;4923692;30;19964;-76
2021/12/31 11:54:00;;;;;;;;;;;;;;;13.47;78.36;101550.03;4925526;30;19998;-75
2021/12/31 11:59:08;;;;;;;;;;;;;;;13.43;78.04;101567.53;4925377;30;19944;-76
2021/12/31 12:01:41;;;;;;;;;;;;;;;13.48;78.04;101568.34;4925730;30;19922;-76
2021/12/31 12:04:21;;;;;;;;;;;;;;;13.70;77.71;101554.97;4935026;30;19932;-74
2021/12/31 12:06:57;;;;;;;;;;;;;;;14.70;74.04;101560.44;4964594;30;19922;-76
2021/12/31 12:09:37;;;;;;;;;;;;;;;15.60;73.46;101565.72;4948799;30;19922;-75
2021/12/31 12:12:15;;;;;;;;;;;;;;;16.29;67.39;101567.72;4964551;30;19922;-78
2021/12/31 12:14:50;;;;;;;;;;;;;;;16.04;67.39;101549.88;4964571;30;19921;-77
2021/12/31 12:17:30;;;;;;;;;;;;;;;16.84;65.78;101542.63;4964328;30;19957;-77
2021/12/31 15:56:46;;;;;;;;;;;;;;;11.94;97.53;101767.41;5000562;29;19925;-74
2021/12/31 15:59:17;;;;;;;;;;;;;;;11.99;96.93;101763.94;5002478;29;20111;-73
2021/12/31 16:01:49;;;;;;;;;;;;;;;12.01;96.72;101763.88;5002902;29;19932;-73
2021/12/31 16:04:21;;;;;;;;;;;;;;;11.98;96.55;101762.19;5002145;29;20289;-79
2021/12/31 16:06:53;;;;;;;;;;;;;;;12.00;97.03;101763.03;5001973;29;19921;-72
2021/12/31 16:09:24;;;;;;;;;;;;;;;12.02;96.48;101763.88;5002120;29;20392;-73
2021/12/31 16:11:55;;;;;;;;;;;;;;;12.03;95.72;101763.03;5001607;29;20008;-73
2021/12/31 16:14:26;;;;;;;;;;;;;;;12.00;95.25;101764.78;5002001;29;19998;-74
2021/12/31 16:46:30;;;;;;;;;;;;;;;11.64;96.57;101782.22;4892411;24;20314;-74
2021/12/31 23:19:04;;;;;;;;;;;;;;;11.95;95.62;102130.63;5033476;24;20008;-73
2021/12/31 23:21:36;;;;;;;;;;;;;;;11.94;95.92;102146.31;4943794;30;20499;-74
2021/12/31 23:24:07;;;;;;;;;;;;;;;11.95;95.87;102140.22;4960619;30;20536;-74
